Time;durP1;ratioP1;P1;durP2;ratioP2;P2;SDS_P1;SDS_P2;PMS_P1;PMS_P2;Temp;Humidity;BMP_temperature;BMP_pressure;BME280_temperature;BME280_humidity;BME280_pressure;Samples;Min_cycle;Max_cycle;Signal;HPM_P1;HPM_P2
2022/09/01 00:01:51;;;;;;;3.63;1.60;;;;;;;13.46;100.00;102317.72;5095237;28;20028;-68
2022/09/01 00:04:20;;;;;;;2.83;1.40;;;;;;;13.36;100.00;102314.97;5077450;28;20039;-68
2022/09/01 00:06:46;;;;;;;2.95;1.40;;;;;;;13.29;100.00;102316.38;5095895;28;20028;-68
2022/09/01 00:09:14;;;;;;;5.15;1.77;;;;;;;13.21;100.00;102314.31;5095651;28;20111;-68
2022/09/01 00:11:43;;;;;;;3.40;1.80;;;;;;;13.15;100.00;102313.94;5095842;28;20097;-68
2022/09/01 00:14:10;;;;;;;1.83;1.45;;;;;;;13.12;100.00;102319.50;5095513;28;20028;-68
2022/09/01 00:16:37;;;;;;;2.40;1.67;;;;;;;13.09;100.00;102317.91;5095695;28;20039;-68
2022/09/01 00:19:03;;;;;;;4.18;1.88;;;;;;;13.07;100.00;102313.69;5095211;28;20147;-68
2022/09/01 00:21:33;;;;;;;5.15;1.33;;;;;;;13.05;100.00;102314.66;5077791;28;20468;-68
2022/09/01 00:23:59;;;;;;;2.10;1.40;;;;;;;13.10;100.00;102311.63;5095324;28;20039;-68
2022/09/01 00:26:26;;;;;;;3.50;1.40;;;;;;;13.15;100.00;102314.78;5077793;28;20515;-68
2022/09/01 00:28:51;;;;;;;2.65;1.50;;;;;;;13.14;100.00;102305.06;5095052;28;20024;-68
2022/09/01 00:31:18;;;;;;;5.30;1.40;;;;;;;13.28;100.00;102306.66;5095691;28;20413;-68
2022/09/01 00:33:45;;;;;;;3.45;1.67;;;;;;;13.24;100.00;102310.53;5095542;28;20047;-69
2022/09/01 00:36:11;;;;;;;2.88;1.52;;;;;;;13.23;100.00;102306.16;5095057;28;20028;-68
2022/09/01 00:38:37;;;;;;;2.42;1.80;;;;;;;13.19;100.00;102305.53;5094961;28;20104;-68
2022/09/01 00:41:03;;;;;;;5.10;1.60;;;;;;;13.14;100.00;102298.88;5094752;28;20031;-68
2022/09/01 00:43:52;;;;;;;3.05;1.40;;;;;;;13.05;100.00;102305.78;5095447;28;20042;-68
2022/09/01 00:46:24;;;;;;;2.28;1.38;;;;;;;12.99;100.00;102300.94;5076932;28;20422;-68
2022/09/01 00:49:01;;;;;;;3.38;1.50;;;;;;;12.95;100.00;102296.78;5094309;28;20032;-68
2022/09/01 00:51:28;;;;;;;2.80;1.50;;;;;;;12.92;100.00;102292.53;5095252;28;20036;-68
2022/09/01 00:53:56;;;;;;;3.83;1.55;;;;;;;12.93;100.00;102291.56;5094789;28;20028;-68
2022/09/01 00:56:22;;;;;;;4.95;1.65;;;;;;;12.93;100.00;102294.22;5094560;28;20024;-69
2022/09/01 00:58:49;;;;;;;2.90;1.67;;;;;;;12.97;100.00;102282.34;5095003;28;20031;-68
2022/09/01 01:01:14;;;;;;;3.92;1.80;;;;;;;12.98;100.00;102289.38;5094368;28;20053;-68
2022/09/01 01:03:43;;;;;;;2.58;1.55;;;;;;;13.01;100.00;102291.81;5094974;28;20028;-69
2022/09/01 01:06:09;;;;;;;2.95;1.50;;;;;;;13.04;100.00;102278.19;5093938;28;20062;-68
2022/09/01 01:08:39;;;;;;;2.25;1.50;;;;;;;12.99;100.00;102283.06;5094399;28;20024;-68
2022/09/01 01:11:16;;;;;;;7.43;1.90;;;;;;;12.97;100.00;102276.13;5076247;28;20032;-69
2022/09/01 01:14:09;;;;;;;5.80;1.50;;;;;;;12.97;100.00;102281.47;5094006;28;20077;-69
2022/09/01 01:16:35;;;;;;;5.25;1.67;;;;;;;12.97;100.00;102285.03;5095015;28;20032;-69
2022/09/01 01:19:01;;;;;;;2.78;1.60;;;;;;;12.93;100.00;102278.22;5094338;28;20052;-68
2022/09/01 01:24:33;;;;;;;3.95;1.70;;;;;;;12.82;100.00;102281.72;5094658;28;20434;-68
2022/09/01 01:27:00;;;;;;;1.58;1.48;;;;;;;12.79;100.00;102281.09;5094673;28;20036;-68
2022/09/01 01:29:31;;;;;;;2.55;1.70;;;;;;;12.73;100.00;102285.06;5093751;28;20433;-67
2022/09/01 01:31:57;;;;;;;2.55;1.30;;;;;;;12.68;100.00;102279.25;5094181;28;20457;-68
2022/09/01 01:34:23;;;;;;;3.38;1.48;;;;;;;12.66;100.00;102284.72;5094009;28;20119;-68
2022/09/01 01:36:49;;;;;;;3.67;2.20;;;;;;;12.65;100.00;102280.31;5094233;28;20482;-68
2022/09/01 01:39:18;;;;;;;5.57;1.60;;;;;;;12.67;100.00;102272.19;5093763;28;20035;-68
2022/09/01 01:41:47;;;;;;;4.63;1.50;;;;;;;12.67;100.00;102282.88;5093740;28;20457;-68
2022/09/01 01:44:15;;;;;;;3.08;1.45;;;;;;;12.63;100.00;102282.28;5093802;28;20024;-68
2022/09/01 01:46:44;;;;;;;5.80;1.80;;;;;;;12.59;100.00;102278.13;5093829;28;20036;-68
2022/09/01 01:49:12;;;;;;;7.28;1.65;;;;;;;12.52;100.00;102280.44;5093440;28;20112;-68
2022/09/01 01:51:38;;;;;;;4.95;2.05;;;;;;;12.45;100.00;102281.84;5093700;28;20036;-68
2022/09/01 01:54:04;;;;;;;2.33;1.42;;;;;;;12.40;100.00;102276.00;5093566;28;20032;-68
2022/09/01 01:56:31;;;;;;;7.25;1.80;;;;;;;12.34;100.00;102285.31;5093624;28;20031;-68
2022/09/01 01:58:57;;;;;;;10.65;2.20;;;;;;;12.31;100.00;102277.53;5093815;28;20032;-68
2022/09/01 02:01:27;;;;;;;4.68;1.77;;;;;;;12.29;100.00;102279.50;5074872;28;20035;-75
2022/09/01 02:03:54;;;;;;;2.97;1.70;;;;;;;12.29;100.00;102284.81;5093157;28;20039;-74
2022/09/01 02:06:23;;;;;;;4.40;2.05;;;;;;;12.26;100.00;102285.06;5093333;28;20424;-75
2022/09/01 02:08:56;;;;;;;3.08;1.48;;;;;;;12.24;100.00;102276.31;5093876;28;20063;-74
2022/09/01 02:11:26;;;;;;;3.28;1.65;;;;;;;12.19;100.00;102283.81;5093281;28;20468;-75
2022/09/01 02:13:56;;;;;;;3.47;1.50;;;;;;;12.16;100.00;102284.03;5093377;28;20054;-75
2022/09/01 02:16:27;;;;;;;3.17;1.77;;;;;;;12.10;100.00;102276.50;5075399;28;20032;-75
2022/09/01 02:18:53;;;;;;;;;;;;;;;12.10;100.00;102280.00;5093528;28;20135;-75
2022/09/01 02:21:21;;;;;;;2.63;1.83;;;;;;;12.06;100.00;102278.56;5074733;28;20015;-75
2022/09/01 02:23:59;;;;;;;1.75;1.50;;;;;;;12.03;100.00;102281.41;5095868;28;20089;-75
2022/09/01 02:26:31;;;;;;;2.95;1.60;;;;;;;12.01;100.00;102280.69;5100478;28;20122;-75
2022/09/01 02:29:03;;;;;;;3.42;1.50;;;;;;;11.99;100.00;102267.47;5099915;28;20487;-75
2022/09/01 02:31:34;;;;;;;3.30;1.40;;;;;;;11.97;100.00;102274.75;5099952;28;20115;-75
2022/09/01 02:34:00;;;;;;;5.78;1.67;;;;;;;11.97;100.00;102260.53;5100031;28;20028;-75
2022/09/01 02:36:26;;;;;;;3.88;1.90;;;;;;;11.97;100.00;102260.53;5099586;28;20028;-75
2022/09/01 02:38:53;;;;;;;6.32;1.90;;;;;;;11.97;100.00;102261.41;5099956;28;20077;-75
2022/09/01 02:41:19;;;;;;;6.40;1.67;;;;;;;11.96;100.00;102270.38;5099508;28;20034;-74
2022/09/01 02:43:45;;;;;;;1.83;1.58;;;;;;;11.92;100.00;102268.84;5100226;28;20111;-75
2022/09/01 02:46:12;;;;;;;3.78;2.00;;;;;;;11.87;100.00;102268.34;5099834;28;20039;-75
2022/09/01 02:48:41;;;;;;;3.22;1.73;;;;;;;11.83;100.00;102267.69;5099438;28;20028;-75
2022/09/01 02:51:13;;;;;;;2.50;1.50;;;;;;;11.79;100.00;102262.72;5100125;28;20035;-76
2022/09/01 02:53:41;;;;;;;5.57;1.95;;;;;;;11.77;100.00;102264.66;5099524;28;20031;-75
2022/09/01 02:56:13;;;;;;;3.90;1.90;;;;;;;11.73;100.00;102263.16;5099399;28;20036;-76
2022/09/01 02:58:44;;;;;;;2.67;1.65;;;;;;;11.70;100.00;102266.06;5100129;28;20077;-75
2022/09/01 03:01:29;;;;;;;3.17;1.73;;;;;;;11.67;100.00;102255.63;5082572;28;20100;-75
2022/09/01 03:03:58;;;;;;;3.65;1.92;;;;;;;11.66;100.00;102254.78;5099917;28;20168;-75
2022/09/01 03:06:25;;;;;;;4.05;1.95;;;;;;;11.65;100.00;102253.91;5099303;28;20169;-76
2022/09/01 03:08:58;;;;;;;3.58;2.50;;;;;;;11.68;100.00;102252.84;5099307;28;20043;-75
2022/09/01 03:11:25;;;;;;;2.10;1.73;;;;;;;11.72;100.00;102253.44;5098960;28;20024;-76
2022/09/01 03:13:51;;;;;;;2.05;1.40;;;;;;;11.71;100.00;102252.59;5099512;28;20063;-75
2022/09/01 03:16:17;;;;;;;2.50;1.70;;;;;;;11.75;100.00;102251.44;5099242;28;20036;-75
2022/09/01 03:18:43;;;;;;;2.35;1.95;;;;;;;11.75;100.00;102253.25;5099136;28;20113;-75
2022/09/01 03:21:09;;;;;;;5.10;1.90;;;;;;;11.81;100.00;102239.47;5099292;28;20078;-75
2022/09/01 03:23:35;;;;;;;3.97;1.80;;;;;;;11.81;100.00;102247.47;5099247;28;20114;-75
2022/09/01 03:26:01;;;;;;;2.70;1.90;;;;;;;11.78;100.00;102245.03;5098927;28;20032;-75
2022/09/01 03:28:27;;;;;;;2.05;1.63;;;;;;;11.75;100.00;102246.09;5098762;28;20468;-75
2022/09/01 03:30:55;;;;;;;11.10;1.83;;;;;;;11.73;100.00;102247.16;5099427;28;20023;-74
2022/09/01 03:33:23;;;;;;;2.22;1.70;;;;;;;11.70;100.00;102244.72;5099006;28;20056;-75
2022/09/01 03:35:49;;;;;;;3.53;1.80;;;;;;;11.70;100.00;102245.56;5095892;28;20051;-74
2022/09/01 03:38:23;;;;;;;5.50;1.98;;;;;;;11.73;100.00;102247.16;5095802;28;20464;-75
2022/09/01 03:40:57;;;;;;;2.42;1.73;;;;;;;11.75;100.00;102243.44;5095824;28;20467;-75
2022/09/01 03:43:25;;;;;;;3.83;1.98;;;;;;;11.77;100.00;102240.66;5095992;28;20403;-75
2022/09/01 03:45:52;;;;;;;3.85;2.03;;;;;;;11.77;100.00;102230.81;5095771;28;20028;-75
2022/09/01 03:48:19;;;;;;;4.00;1.90;;;;;;;11.80;100.00;102237.75;5095810;28;20112;-76
2022/09/01 03:50:45;;;;;;;3.90;2.00;;;;;;;11.77;100.00;102240.66;5096010;28;20059;-75
2022/09/01 03:53:16;;;;;;;5.15;2.00;;;;;;;11.77;100.00;102244.16;5095781;28;20434;-75
2022/09/01 03:55:44;;;;;;;3.70;1.73;;;;;;;11.80;100.00;102240.41;5095533;28;20107;-75
2022/09/01 03:58:11;;;;;;;3.53;2.00;;;;;;;11.81;100.00;102234.97;5077231;28;20165;-75
2022/09/01 04:00:59;;;;;;;7.07;2.25;;;;;;;11.79;100.00;102236.91;5095864;28;20194;-75
2022/09/01 04:03:30;;;;;;;3.70;2.00;;;;;;;11.75;100.00;102235.44;5095374;28;20068;-75
2022/09/01 04:05:56;;;;;;;4.95;2.13;;;;;;;11.74;100.00;102230.22;5095461;28;20074;-75
2022/09/01 04:08:26;;;;;;;3.53;2.13;;;;;;;11.69;100.00;102230.56;5095336;28;20064;-74
2022/09/01 04:10:53;;;;;;;7.20;2.20;;;;;;;11.72;100.00;102234.78;5077093;28;20055;-75
2022/09/01 04:13:24;;;;;;;3.45;2.22;;;;;;;11.68;100.00;102228.84;5094938;28;20484;-75
2022/09/01 04:15:50;;;;;;;6.13;2.00;;;;;;;11.65;100.00;102223.72;5095726;28;20035;-75
2022/09/01 04:18:20;;;;;;;4.00;2.00;;;;;;;11.60;100.00;102217.91;5076724;28;20058;-74
2022/09/01 04:20:49;;;;;;;2.90;2.20;;;;;;;11.58;100.00;102227.81;5095483;28;20039;-74
2022/09/01 04:23:28;;;;;;;5.50;2.50;;;;;;;11.55;100.00;102225.38;5076874;28;20134;-75
2022/09/01 04:26:07;;;;;;;4.10;2.10;;;;;;;11.51;100.00;102227.41;5094739;28;20450;-75
2022/09/01 04:28:36;;;;;;;3.30;2.30;;;;;;;11.47;100.00;102224.09;5095631;28;20028;-74
2022/09/01 04:31:07;;;;;;;2.75;1.90;;;;;;;11.47;100.00;102229.44;5094895;28;20034;-75
2022/09/01 04:33:38;;;;;;;;;;;;;;;11.45;100.00;102227.88;5095266;28;20024;-74
2022/09/01 04:36:24;;;;;;;2.63;2.40;;;;;;;11.44;100.00;102228.81;5095165;28;19931;-74
2022/09/01 04:38:56;;;;;;;4.35;2.03;;;;;;;11.41;100.00;102229.03;5095576;28;20123;-74
2022/09/01 04:41:29;;;;;;;3.50;2.22;;;;;;;11.38;100.00;102235.44;5095068;28;20032;-74
2022/09/01 04:43:55;;;;;;;3.05;2.40;;;;;;;11.34;100.00;102241.94;5095299;28;20038;-74
2022/09/01 04:46:22;;;;;;;4.25;2.20;;;;;;;11.32;100.00;102235.03;5093700;28;20035;-75
2022/09/01 04:48:51;;;;;;;3.53;2.22;;;;;;;11.35;100.00;102227.66;5075272;28;20028;-75
2022/09/01 04:51:16;;;;;;;5.70;2.40;;;;;;;11.33;100.00;102234.94;5094079;28;20036;-75
2022/09/01 04:53:47;;;;;;;7.35;2.83;;;;;;;11.32;100.00;102225.22;5094536;28;20130;-74
2022/09/01 04:56:14;;;;;;;5.03;2.30;;;;;;;11.29;100.00;102234.28;5094931;28;20020;-75
2022/09/01 04:58:39;;;;;;;4.25;2.60;;;;;;;11.26;100.00;102242.50;5094584;28;20035;-74
2022/09/01 05:01:21;;;;;;;3.13;2.60;;;;;;;11.22;100.00;102235.66;5076249;28;20380;-74
2022/09/01 05:03:56;;;;;;;4.18;2.47;;;;;;;11.19;100.00;102238.56;5094032;28;20020;-74
2022/09/01 05:06:22;;;;;;;6.63;2.70;;;;;;;11.16;100.00;102233.44;5094691;28;20352;-75
2022/09/01 05:08:48;;;;;;;7.40;2.53;;;;;;;11.16;100.00;102232.59;5076126;28;20055;-73
2022/09/01 05:11:16;;;;;;;4.75;2.40;;;;;;;11.15;100.00;102225.56;5094935;28;20118;-75
2022/09/01 05:13:47;;;;;;;5.35;2.35;;;;;;;11.14;100.00;102231.84;5076591;28;20106;-75
2022/09/01 05:16:18;;;;;;;5.53;3.90;;;;;;;11.16;100.00;102232.59;5094117;28;20417;-75
2022/09/01 05:18:47;;;;;;;4.55;2.70;;;;;;;11.18;100.00;102239.53;5094506;28;20305;-75
2022/09/01 05:21:15;;;;;;;6.45;2.80;;;;;;;11.20;100.00;102237.59;5093998;28;20020;-74
2022/09/01 05:23:45;;;;;;;3.15;2.40;;;;;;;11.23;100.00;102237.38;5093659;28;20525;-76
2022/09/01 05:26:16;;;;;;;6.57;2.50;;;;;;;11.25;100.00;102238.13;5093982;28;20024;-75
2022/09/01 05:28:57;;;;;;;5.60;2.35;;;;;;;11.26;100.00;102236.31;5094391;28;20108;-76
2022/09/01 05:31:24;;;;;;;7.10;2.40;;;;;;;11.26;100.00;102233.66;5094066;28;20352;-74
2022/09/01 05:33:50;;;;;;;9.77;2.70;;;;;;;11.23;100.00;102234.72;5093543;28;20467;-74
2022/09/01 05:36:19;;;;;;;3.88;2.50;;;;;;;11.25;100.00;102237.28;5094186;28;20027;-74
2022/09/01 05:38:46;;;;;;;3.20;2.40;;;;;;;11.26;100.00;102239.81;5093738;28;20093;-75
2022/09/01 05:41:14;;;;;;;5.45;2.25;;;;;;;11.28;100.00;102237.06;5093684;28;20034;-74
2022/09/01 05:43:47;;;;;;;5.10;2.60;;;;;;;11.29;100.00;102236.94;5093261;28;20540;-73
2022/09/01 05:46:17;;;;;;;6.85;2.70;;;;;;;11.32;100.00;102238.53;5093413;28;20366;-74
2022/09/01 05:48:44;;;;;;;2.90;2.50;;;;;;;11.38;100.00;102245.25;5075973;28;20309;-74
2022/09/01 05:51:15;;;;;;;3.63;2.58;;;;;;;11.44;100.00;102239.47;5075859;28;20032;-73
2022/09/01 05:53:42;;;;;;;5.70;2.28;;;;;;;11.54;100.00;102235.19;5093460;28;20028;-74
2022/09/01 05:56:12;;;;;;;5.13;2.55;;;;;;;11.63;100.00;102241.66;5093543;28;20026;-74
2022/09/01 05:58:39;;;;;;;4.88;2.50;;;;;;;11.73;100.00;102249.81;5092885;28;20052;-73
2022/09/01 06:01:04;;;;;;;6.88;2.67;;;;;;;11.79;100.00;102242.25;5093650;28;20020;-74
2022/09/01 06:03:31;;;;;;;4.18;2.40;;;;;;;11.87;100.00;102244.34;5093234;28;20030;-74
2022/09/01 06:06:04;;;;;;;4.60;2.50;;;;;;;11.92;100.00;102244.00;5093698;28;20027;-74
2022/09/01 06:08:29;;;;;;;5.13;2.75;;;;;;;11.95;100.00;102247.31;5093633;28;20126;-74
2022/09/01 06:10:55;;;;;;;4.95;2.38;;;;;;;11.97;100.00;102250.72;5093038;28;20523;-73
2022/09/01 06:13:20;;;;;;;4.55;2.83;;;;;;;12.02;100.00;102242.38;5074809;28;20035;-73
2022/09/01 06:15:52;;;;;;;3.22;2.60;;;;;;;12.06;100.00;102240.31;5092931;28;20375;-73
2022/09/01 06:18:20;;;;;;;6.20;2.85;;;;;;;12.13;100.00;102244.25;5092885;28;20120;-73
2022/09/01 06:20:46;;;;;;;4.30;2.60;;;;;;;12.20;100.00;102242.00;5093470;28;20084;-73
2022/09/01 06:23:16;;;;;;;3.35;2.70;;;;;;;12.26;100.00;102250.38;5092912;28;20455;-75
2022/09/01 06:25:45;;;;;;;5.28;2.63;;;;;;;12.33;100.00;102240.94;5092912;28;20214;-74
2022/09/01 06:28:13;;;;;;;6.53;2.60;;;;;;;12.40;100.00;102240.47;5092954;28;20076;-73
2022/09/01 06:30:39;;;;;;;4.22;2.38;;;;;;;12.48;100.00;102249.59;5092808;28;20119;-73
2022/09/01 06:33:09;;;;;;;3.33;2.30;;;;;;;12.56;100.00;102243.66;5092691;28;20032;-74
2022/09/01 06:35:39;;;;;;;6.63;2.60;;;;;;;12.64;100.00;102237.72;5093069;28;20047;-73
2022/09/01 06:38:05;;;;;;;4.75;2.55;;;;;;;12.72;100.00;102237.13;5093234;28;20104;-73
2022/09/01 06:40:32;;;;;;;4.38;2.30;;;;;;;12.80;100.00;102240.06;5092734;28;20032;-74
2022/09/01 06:43:06;;;;;;;2.88;2.42;;;;;;;12.85;100.00;102238.75;5074595;28;20473;-73
2022/09/01 06:45:39;;;;;;;6.75;2.47;;;;;;;12.96;100.00;102256.59;5093426;28;20020;-73
2022/09/01 06:48:05;;;;;;;4.13;2.28;;;;;;;13.04;100.00;102248.81;5093409;28;20026;-73
2022/09/01 06:50:30;;;;;;;4.38;2.60;;;;;;;13.14;100.00;102248.09;5093482;28;20111;-73
2022/09/01 06:53:17;;;;;;;5.00;2.50;;;;;;;13.22;100.00;102254.50;5092743;28;20039;-73
2022/09/01 06:55:42;;;;;;;4.97;2.63;;;;;;;13.30;100.00;102255.72;5092409;28;20036;-73
2022/09/01 06:58:12;;;;;;;3.78;2.45;;;;;;;13.36;100.00;102253.47;5092964;28;20030;-72
2022/09/01 07:00:41;;;;;;;4.90;2.70;;;;;;;13.45;100.00;102251.00;5092772;28;20020;-73
2022/09/01 07:03:12;;;;;;;4.97;2.13;;;;;;;13.54;100.00;102252.94;5093079;28;20031;-73
2022/09/01 07:05:38;;;;;;;;;;;;;;;13.62;98.92;102255.03;5093815;28;20028;-75
2022/09/01 07:08:09;;;;;;;2.83;1.90;;;;;;;13.70;97.28;102249.88;5092428;28;19904;-73
2022/09/01 07:10:44;;;;;;;9.35;2.55;;;;;;;13.78;97.93;102254.59;5094415;28;20052;-74
2022/09/01 07:13:17;;;;;;;5.38;2.20;;;;;;;13.88;98.83;102256.41;5096304;28;20499;-73
2022/09/01 07:15:43;;;;;;;3.72;2.35;;;;;;;13.96;96.58;102260.25;5097020;28;20023;-73
2022/09/01 07:18:11;;;;;;;3.85;2.10;;;;;;;14.03;95.78;102253.44;5096203;28;20051;-73
2022/09/01 07:20:40;;;;;;;9.80;2.03;;;;;;;14.14;95.16;102257.88;5078468;28;20034;-74
2022/09/01 07:23:07;;;;;;;3.53;2.17;;;;;;;14.24;93.35;102256.13;5077585;28;20012;-74
2022/09/01 07:25:36;;;;;;;5.32;2.00;;;;;;;14.36;92.15;102257.81;5095735;28;20111;-79
2022/09/01 07:28:02;;;;;;;2.97;1.92;;;;;;;14.48;91.96;102266.63;5077657;28;20020;-73
2022/09/01 07:30:27;;;;;;;3.58;2.33;;;;;;;14.58;91.60;102264.84;5078423;28;20418;-74
2022/09/01 07:32:54;;;;;;;4.38;2.10;;;;;;;14.67;87.57;102263.25;5095933;28;20111;-72
2022/09/01 07:35:21;;;;;;;4.30;2.15;;;;;;;14.79;88.55;102261.34;5096074;28;20035;-73
2022/09/01 07:37:47;;;;;;;3.17;2.00;;;;;;;14.94;87.67;102260.03;5095985;28;20032;-73
2022/09/01 07:40:17;;;;;;;5.70;2.20;;;;;;;15.05;86.82;102256.41;5095979;28;20106;-74
2022/09/01 07:42:46;;;;;;;4.32;2.17;;;;;;;15.19;87.09;102254.34;5095669;28;20479;-74
2022/09/01 07:45:14;;;;;;;3.15;2.20;;;;;;;15.33;86.19;102253.97;5095835;28;20020;-74
2022/09/01 07:47:39;;;;;;;6.55;2.00;;;;;;;15.46;84.53;102259.94;5096450;28;20034;-74
2022/09/01 07:50:11;;;;;;;7.93;2.20;;;;;;;15.63;84.15;102263.81;5096111;28;20028;-74
2022/09/01 07:52:41;;;;;;;;;;;;;;;15.78;83.05;102261.63;5078450;28;20020;-74
2022/09/01 07:55:12;;;;;;;3.13;2.20;;;;;;;15.96;83.23;102258.22;5095858;28;19941;-73
2022/09/01 07:57:41;;;;;;;3.45;2.10;;;;;;;16.11;81.14;102256.84;5077462;28;20119;-75
2022/09/01 08:00:10;;;;;;;3.22;1.90;;;;;;;16.29;81.21;102267.72;5095409;28;20032;-74
2022/09/01 08:02:38;;;;;;;5.75;2.13;;;;;;;16.47;81.05;102267.84;5095052;28;20028;-73
2022/09/01 08:05:08;;;;;;;7.95;2.20;;;;;;;16.76;78.68;102256.19;5095408;28;20424;-73
2022/09/01 08:07:35;;;;;;;2.58;2.05;;;;;;;17.24;76.71;102263.28;5095138;28;20023;-74
2022/09/01 08:10:01;;;;;;;4.15;2.10;;;;;;;17.94;74.46;102260.06;5094861;28;20028;-75
2022/09/01 08:12:27;;;;;;;14.27;2.10;;;;;;;18.66;70.20;102264.50;5094814;28;20170;-74
2022/09/01 08:14:52;;;;;;;3.75;2.15;;;;;;;19.16;66.88;102271.06;5095349;28;20470;-73
2022/09/01 08:17:19;;;;;;;5.57;2.35;;;;;;;19.60;65.17;102268.22;5095483;28;20038;-74
2022/09/01 08:19:45;;;;;;;4.88;2.42;;;;;;;20.13;62.30;102265.31;5077206;28;20120;-74
2022/09/01 08:22:12;;;;;;;5.63;2.40;;;;;;;20.57;61.69;102263.09;5095196;28;20114;-74
2022/09/01 08:24:37;;;;;;;10.10;2.63;;;;;;;20.58;59.96;102264.78;5077425;28;20032;-74
2022/09/01 08:27:03;;;;;;;6.55;2.40;;;;;;;20.61;59.74;102258.19;5095094;28;20027;-74
2022/09/01 08:29:29;;;;;;;5.05;2.20;;;;;;;20.74;59.45;102265.81;5095003;28;20427;-73
2022/09/01 08:31:54;;;;;;;3.50;2.33;;;;;;;20.61;60.89;102263.59;5077608;28;20040;-74
2022/09/01 08:34:19;;;;;;;15.98;2.40;;;;;;;20.55;61.77;102264.28;5094987;28;20076;-74
2022/09/01 08:36:45;;;;;;;4.95;2.17;;;;;;;20.46;60.55;102262.59;5076480;28;20032;-74
2022/09/01 08:39:10;;;;;;;8.40;2.53;;;;;;;20.29;58.87;102254.50;5094835;28;20456;-74
2022/09/01 08:41:51;;;;;;;6.80;2.20;;;;;;;20.42;59.63;102254.84;5094375;28;20066;-75
2022/09/01 08:44:28;;;;;;;;;;;;;;;20.67;60.89;102259.41;5095628;28;20428;-74
2022/09/01 08:47:00;;;;;;;4.60;2.15;;;;;;;21.01;58.95;102259.13;5094795;28;19904;-74
2022/09/01 08:49:26;;;;;;;4.13;2.10;;;;;;;21.18;56.52;102259.91;5094803;28;20107;-74
2022/09/01 08:52:17;;;;;;;4.00;2.00;;;;;;;21.64;56.27;102259.22;5094290;28;20062;-75
2022/09/01 08:54:52;;;;;;;4.20;1.95;;;;;;;22.02;53.53;102260.16;5094763;28;20106;-84
2022/09/01 08:57:22;;;;;;;6.93;2.25;;;;;;;22.74;52.01;102258.03;5095277;28;20123;-76
2022/09/01 08:59:48;;;;;;;11.38;2.20;;;;;;;23.59;48.13;102243.09;5094539;28;20024;-75
2022/09/01 09:02:35;;;;;;;6.10;2.50;;;;;;;24.69;45.83;102255.63;5076041;28;20467;-74
2022/09/01 09:05:06;;;;;;;2.70;2.13;;;;;;;25.90;43.23;102243.34;5094349;28;20042;-73
2022/09/01 09:07:50;;;;;;;8.48;2.13;;;;;;;26.77;39.34;102236.03;5094703;28;20023;-77
2022/09/01 09:10:36;;;;;;;4.57;2.10;;;;;;;27.85;37.88;102237.22;5094701;28;20024;-74
2022/09/01 09:13:19;;;;;;;8.77;2.20;;;;;;;27.89;37.10;102237.63;5094117;28;20023;-76
2022/09/01 09:15:55;;;;;;;3.60;1.92;;;;;;;28.06;35.98;102244.25;5094362;28;20062;-75
2022/09/01 09:18:48;;;;;;;12.93;2.17;;;;;;;28.97;35.80;102235.59;5094285;28;20048;-74
2022/09/01 09:21:34;;;;;;;3.65;2.38;;;;;;;29.33;34.07;102228.41;5094165;28;20553;-73
2022/09/01 09:24:17;;;;;;;6.55;2.40;;;;;;;29.32;33.46;102222.13;5094620;28;20024;-77
2022/09/01 09:26:47;;;;;;;7.68;2.10;;;;;;;29.91;34.62;102226.13;5094387;28;20460;-74
2022/09/01 09:29:13;;;;;;;5.97;1.90;;;;;;;30.33;32.02;102217.81;5094442;28;20032;-74
2022/09/01 09:31:46;;;;;;;5.82;2.03;;;;;;;29.82;32.98;102220.16;5076190;28;20034;-74
2022/09/01 09:34:34;;;;;;;4.60;1.80;;;;;;;30.34;32.58;102216.75;5093557;28;20036;-74
2022/09/01 09:37:22;;;;;;;5.82;2.00;;;;;;;30.52;31.76;102213.06;5094405;28;20024;-75
2022/09/01 09:40:08;;;;;;;6.65;2.13;;;;;;;30.84;31.75;102215.38;5075775;28;20538;-75
2022/09/01 09:42:33;;;;;;;4.53;2.00;;;;;;;31.29;30.62;102212.75;5075547;28;20177;-73
2022/09/01 09:44:59;;;;;;;4.63;1.70;;;;;;;31.59;31.95;102210.84;5093881;28;20103;-74
2022/09/01 09:47:45;;;;;;;8.25;2.10;;;;;;;31.79;31.07;102202.94;5093676;28;20035;-74
2022/09/01 09:50:11;;;;;;;9.00;1.85;;;;;;;31.45;30.00;102207.53;5093967;28;20075;-74
2022/09/01 09:52:36;;;;;;;7.90;2.05;;;;;;;31.43;29.34;102201.47;5093806;28;20405;-73
2022/09/01 09:55:16;;;;;;;3.70;1.90;;;;;;;31.57;30.06;102205.59;5093350;28;20482;-73
2022/09/01 09:57:41;;;;;;;7.30;1.95;;;;;;;31.29;31.22;102204.50;5093777;28;20028;-75
2022/09/01 10:00:32;;;;;;;4.82;2.00;;;;;;;31.64;30.10;102199.94;5093504;28;20106;-74
2022/09/01 10:02:58;;;;;;;6.00;1.85;;;;;;;32.20;29.23;102200.03;5093703;28;20020;-75
2022/09/01 10:05:37;;;;;;;8.05;2.28;;;;;;;31.59;28.26;102195.19;5094028;28;20093;-74
2022/09/01 10:08:09;;;;;;;5.32;1.98;;;;;;;31.68;28.38;102195.63;5093497;28;20100;-74
2022/09/01 10:10:43;;;;;;;4.00;1.85;;;;;;;31.74;28.03;102194.63;5093879;28;20020;-74
2022/09/01 10:13:16;;;;;;;2.45;1.40;;;;;;;31.34;28.56;102198.28;5093724;28;20077;-74
2022/09/01 10:15:55;;;;;;;4.55;1.80;;;;;;;31.56;28.38;102192.94;5094413;28;20024;-74
2022/09/01 10:18:35;;;;;;;3.85;1.50;;;;;;;31.86;27.98;102193.69;5093148;28;20043;-75
2022/09/01 10:21:21;;;;;;;5.53;1.50;;;;;;;31.67;26.88;102188.44;5075145;28;20027;-75
2022/09/01 10:23:46;;;;;;;8.27;1.90;;;;;;;31.41;27.26;102190.72;5093326;28;20050;-74
2022/09/01 10:26:14;;;;;;;5.85;1.38;;;;;;;31.47;27.46;102184.22;5093233;28;20028;-73
2022/09/01 10:28:53;;;;;;;3.65;1.60;;;;;;;31.74;27.93;102182.75;5093467;28;20158;-76
2022/09/01 10:31:20;;;;;;;4.55;1.40;;;;;;;31.94;26.33;102190.53;5093697;28;20042;-74
2022/09/01 10:33:47;;;;;;;4.45;1.40;;;;;;;32.23;27.29;102191.28;5092839;28;20466;-74
2022/09/01 10:36:14;;;;;;;2.47;1.30;;;;;;;32.16;27.02;102188.69;5093102;28;20095;-74
2022/09/01 10:38:42;;;;;;;2.13;1.25;;;;;;;32.15;26.97;102181.50;5093487;28;20032;-73
2022/09/01 10:41:07;;;;;;;3.38;1.50;;;;;;;32.34;26.51;102173.81;5093012;28;20024;-75
2022/09/01 10:43:34;;;;;;;8.77;1.20;;;;;;;32.53;25.91;102176.28;5075441;28;20172;-74
2022/09/01 10:46:08;;;;;;;5.15;1.30;;;;;;;32.50;26.41;102171.25;5096952;28;20490;-74
2022/09/01 10:48:37;;;;;;;3.25;1.40;;;;;;;32.41;26.53;102170.88;5097191;28;20030;-73
2022/09/01 10:51:25;;;;;;;8.05;1.17;;;;;;;32.07;25.90;102175.56;5097208;28;20023;-72
2022/09/01 10:53:52;;;;;;;3.65;1.27;;;;;;;32.32;25.17;102161.38;5085682;28;20036;-73
2022/09/01 10:56:36;;;;;;;4.90;1.20;;;;;;;32.81;24.81;102168.94;5096849;28;20094;-74
2022/09/01 10:59:24;;;;;;;6.05;1.52;;;;;;;32.64;26.37;102164.28;5097565;28;20052;-75
2022/09/01 11:01:49;;;;;;;3.78;1.23;;;;;;;32.29;25.21;102162.75;5097253;28;20046;-74
2022/09/01 11:04:38;;;;;;;2.67;1.30;;;;;;;32.49;25.49;102166.84;5096666;28;20024;-74
2022/09/01 11:07:25;;;;;;;8.25;1.42;;;;;;;32.31;25.78;102163.31;5096412;28;20451;-74
2022/09/01 11:10:15;;;;;;;13.60;1.40;;;;;;;32.41;26.64;102162.63;5096688;28;20460;-74
2022/09/01 11:13:09;;;;;;;2.83;1.20;;;;;;;32.54;25.45;102161.41;5096779;28;20032;-73
2022/09/01 11:15:41;;;;;;;2.90;1.20;;;;;;;32.23;25.58;102158.25;5059677;28;20092;-73
2022/09/01 11:18:23;;;;;;;2.85;1.25;;;;;;;31.92;26.11;102155.00;5096290;28;20035;-74
2022/09/01 11:20:49;;;;;;;7.75;1.50;;;;;;;31.87;25.63;102157.66;5096706;28;20150;-75
2022/09/01 11:23:29;;;;;;;2.78;1.40;;;;;;;31.65;27.11;102157.59;5096305;28;20359;-73
2022/09/01 11:26:01;;;;;;;4.80;1.20;;;;;;;31.45;26.83;102152.53;5097014;28;20026;-73
2022/09/01 11:28:29;;;;;;;6.90;1.40;;;;;;;30.15;30.43;102150.16;5096870;28;20450;-74
2022/09/01 11:31:07;;;;;;;4.72;1.33;;;;;;;30.67;29.02;102150.22;5096376;28;20016;-74
2022/09/01 11:33:47;;;;;;;1.75;1.17;;;;;;;31.38;27.65;102151.88;5096770;28;20309;-73
2022/09/01 11:36:30;;;;;;;1.98;1.33;;;;;;;31.71;25.53;102153.84;5096004;28;20035;-75
2022/09/01 11:39:18;;;;;;;5.95;1.42;;;;;;;32.55;25.32;102149.31;5096585;28;20028;-75
2022/09/01 11:42:00;;;;;;;3.50;1.23;;;;;;;32.88;24.27;102149.44;5096202;28;20042;-74